createdAt,value
2022-08-04T00:02:11.199Z,30.27
2022-08-04T00:04:20.275Z,30.73
2022-08-04T00:06:39.790Z,26.67
2022-08-04T00:08:45.688Z,28.52
2022-08-04T00:10:50.563Z,28.77
2022-08-04T00:12:58.293Z,28.63
2022-08-04T00:15:01.427Z,30.38
2022-08-04T00:17:05.179Z,25.92
2022-08-04T00:19:27.940Z,27.35
2022-08-04T00:21:32.077Z,27.85
2022-08-04T00:24:12.268Z,28.95
2022-08-04T00:25:57.828Z,29.02
2022-08-04T00:28:01.968Z,26.88
2022-08-04T00:30:04.978Z,28.85
2022-08-04T00:32:08.168Z,27.92
2022-08-04T00:34:13.916Z,29.48
2022-08-04T00:36:16.366Z,31.08
2022-08-04T00:38:18.860Z,33.22
2022-08-04T00:40:42.219Z,33.67
2022-08-04T00:42:58.645Z,26.60
2022-08-04T00:45:25.369Z,27.13
2022-08-04T00:47:45.422Z,29.88
2022-08-04T00:50:05.524Z,27.42
2022-08-04T00:52:31.965Z,32.47
2022-08-04T00:54:42.429Z,26.63
2022-08-04T00:56:59.056Z,31.15
2022-08-04T00:59:31.524Z,27.98
2022-08-04T01:02:10.537Z,28.30
2022-08-04T01:04:22.015Z,29.13
2022-08-04T01:06:37.485Z,28.38
2022-08-04T01:08:57.960Z,28.08
2022-08-04T01:11:16.320Z,29.50
2022-08-04T01:13:59.678Z,31.85
2022-08-04T01:16:11.027Z,34.40
2022-08-04T01:18:22.622Z,30.95
2022-08-04T01:20:32.882Z,30.88
2022-08-04T01:22:34.367Z,30.88
2022-08-04T01:24:50.928Z,33.80
2022-08-04T01:27:06.394Z,32.00
2022-08-04T01:29:17.301Z,32.13
2022-08-04T01:31:40.855Z,32.35
2022-08-04T01:34:03.048Z,31.20
2022-08-04T01:36:06.767Z,32.10
2022-08-04T01:38:21.494Z,36.47
2022-08-04T01:40:26.996Z,31.17
2022-08-04T01:42:32.617Z,30.83
2022-08-04T01:44:36.102Z,32.00
2022-08-04T01:46:38.590Z,33.28
2022-08-04T01:48:41.005Z,32.75
2022-08-04T01:50:43.502Z,32.20
2022-08-04T01:52:50.521Z,31.48
2022-08-04T01:54:53.026Z,32.30
2022-08-04T01:56:56.155Z,34.83
2022-08-04T01:58:57.990Z,35.05
2022-08-04T02:01:08.751Z,33.20
2022-08-04T02:03:14.160Z,34.13
2022-08-04T02:05:17.532Z,36.55
2022-08-04T02:07:50.032Z,33.72
2022-08-04T02:10:29.877Z,37.72
2022-08-04T02:13:17.226Z,31.17
2022-08-04T02:15:21.692Z,35.13
2022-08-04T02:17:30.481Z,32.45
2022-08-04T02:19:58.257Z,31.98
2022-08-04T02:22:10.361Z,31.08
2022-08-04T02:24:14.982Z,30.52
2022-08-04T02:26:22.045Z,31.75
2022-08-04T02:28:35.691Z,35.38
2022-08-04T02:30:58.321Z,34.20
2022-08-04T02:33:03.618Z,33.65
2022-08-04T02:35:28.328Z,42.75
2022-08-04T02:37:33.135Z,41.10
2022-08-04T02:39:48.015Z,44.92
2022-08-04T02:41:50.956Z,45.65
2022-08-04T02:43:56.799Z,44.63
2022-08-04T02:45:59.770Z,45.75
2022-08-04T02:48:19.333Z,42.30
2022-08-04T02:50:28.294Z,40.10
2022-08-04T02:52:30.418Z,39.75
2022-08-04T02:54:35.848Z,45.25
2022-08-04T02:56:38.974Z,42.47
2022-08-04T02:58:42.839Z,41.70
2022-08-04T03:00:45.629Z,39.97
2022-08-04T03:03:16.886Z,41.20
2022-08-04T03:05:20.617Z,39.28
2022-08-04T03:07:28.208Z,36.00
2022-08-04T03:09:51.670Z,34.83
2022-08-04T03:12:12.108Z,33.72
2022-08-04T03:14:50.721Z,32.97
2022-08-04T03:17:33.909Z,33.15
2022-08-04T03:19:54.045Z,33.92
2022-08-04T03:22:18.635Z,38.80
2022-08-04T03:24:30.103Z,37.20
2022-08-04T03:26:40.407Z,37.08
2022-08-04T03:28:57.142Z,32.72
2022-08-04T03:31:30.978Z,30.02
2022-08-04T03:33:45.861Z,31.58
2022-08-04T03:36:05.471Z,33.20
2022-08-04T03:38:25.954Z,31.58
2022-08-04T03:40:39.487Z,30.23
2022-08-04T03:43:05.602Z,32.80
2022-08-04T03:45:45.924Z,27.70
2022-08-04T03:48:18.575Z,26.35
2022-08-04T03:50:32.027Z,26.48
2022-08-04T03:53:01.056Z,27.65
2022-08-04T03:55:36.226Z,24.67
2022-08-04T03:58:16.125Z,24.52
2022-08-04T04:02:40.847Z,17.38
2022-08-04T04:04:48.080Z,17.80
2022-08-04T04:07:17.534Z,14.20
2022-08-04T04:09:52.952Z,13.45
2022-08-04T04:12:11.539Z,13.95
2022-08-04T04:14:15.762Z,15.75
2022-08-04T04:16:37.727Z,14.25
2022-08-04T04:18:49.527Z,11.55
2022-08-04T04:21:08.106Z,13.70
2022-08-04T04:23:27.590Z,14.48
2022-08-04T04:25:50.026Z,16.50
2022-08-04T04:28:44.582Z,14.23
2022-08-04T04:30:53.474Z,12.82
2022-08-04T04:33:10.307Z,14.00
2022-08-04T04:35:35.841Z,14.73
2022-08-04T04:37:48.703Z,20.05
2022-08-04T04:40:04.717Z,16.65
2022-08-04T04:42:44.227Z,13.90
2022-08-04T04:44:51.662Z,14.40
2022-08-04T04:47:14.907Z,14.77
2022-08-04T04:49:40.447Z,19.83
2022-08-04T04:51:50.864Z,15.02
2022-08-04T04:54:13.770Z,23.70
2022-08-04T04:56:23.232Z,18.60
2022-08-04T04:58:25.761Z,27.20
2022-08-04T05:00:51.877Z,14.75
2022-08-04T05:03:24.607Z,14.50
2022-08-04T05:05:41.348Z,18.80
2022-08-04T05:08:43.770Z,15.40
2022-08-04T05:11:09.438Z,14.43
2022-08-04T05:14:37.708Z,14.88
2022-08-04T05:16:02.453Z,16.20
2022-08-04T05:18:07.177Z,17.48
2022-08-04T05:20:20.764Z,17.83
2022-08-04T05:22:32.237Z,14.88
2022-08-04T05:24:38.537Z,15.23
2022-08-04T05:26:50.491Z,14.60
2022-08-04T05:28:57.661Z,15.57
2022-08-04T05:31:16.779Z,15.18
2022-08-04T05:33:29.115Z,17.13
2022-08-04T05:35:47.945Z,15.55
2022-08-04T05:38:01.922Z,20.95
2022-08-04T05:40:05.849Z,16.65
2022-08-04T05:42:07.662Z,17.10
2022-08-04T05:44:10.115Z,16.27
2022-08-04T05:46:12.778Z,17.95
2022-08-04T05:48:14.808Z,15.70
2022-08-04T05:50:16.564Z,14.30
2022-08-04T05:52:18.777Z,14.70
2022-08-04T05:54:21.155Z,13.35
2022-08-04T05:56:22.984Z,16.55
2022-08-04T05:58:25.781Z,15.48
2022-08-04T06:00:40.775Z,15.00
2022-08-04T06:02:45.059Z,14.43
2022-08-04T06:04:49.363Z,12.57
2022-08-04T06:06:50.939Z,14.50
2022-08-04T06:08:52.930Z,14.90
2022-08-04T06:10:57.920Z,14.88
2022-08-04T06:13:03.576Z,14.85
2022-08-04T06:15:07.805Z,12.55
2022-08-04T06:18:32.145Z,11.25
2022-08-04T06:20:03.367Z,14.07
2022-08-04T06:21:59.348Z,10.20
2022-08-04T06:24:04.534Z,10.15
2022-08-04T06:26:07.389Z,12.43
2022-08-04T06:28:10.450Z,15.60
2022-08-04T06:30:14.653Z,11.25
2022-08-04T06:32:41.292Z,14.85
2022-08-04T06:34:43.615Z,11.15
2022-08-04T06:36:45.521Z,9.13
2022-08-04T06:38:47.611Z,12.77
2022-08-04T06:41:03.680Z,10.15
2022-08-04T06:43:07.109Z,15.75
2022-08-04T06:45:10.453Z,7.43
2022-08-04T06:47:18.407Z,7.93
2022-08-04T06:49:20.729Z,13.35
2022-08-04T06:51:30.428Z,8.60
2022-08-04T06:53:37.145Z,8.55
2022-08-04T06:55:39.474Z,7.00
2022-08-04T06:57:41.897Z,10.55
2022-08-04T06:59:45.161Z,7.25
2022-08-04T07:01:47.448Z,7.38
2022-08-04T07:03:50.937Z,7.90
2022-08-04T07:05:52.753Z,7.70
2022-08-04T07:07:57.263Z,6.32
2022-08-04T07:10:02.133Z,8.68
2022-08-04T07:12:04.041Z,5.90
2022-08-04T07:14:05.758Z,5.32
2022-08-04T07:16:07.775Z,7.20
2022-08-04T07:18:09.398Z,10.07
2022-08-04T07:20:11.480Z,6.68
2022-08-04T07:22:25.011Z,6.10
2022-08-04T07:24:31.709Z,5.78
2022-08-04T07:26:33.592Z,6.25
2022-08-04T07:28:35.225Z,6.78
2022-08-04T07:30:37.197Z,4.80
2022-08-04T07:32:39.142Z,4.85
2022-08-04T07:34:41.162Z,6.40
2022-08-04T07:36:50.901Z,4.88
2022-08-04T07:38:54.829Z,7.20
2022-08-04T07:40:57.476Z,7.60
2022-08-04T07:42:59.298Z,7.10
2022-08-04T07:45:00.970Z,5.45
2022-08-04T07:47:05.106Z,6.18
2022-08-04T07:49:06.842Z,5.00
2022-08-04T07:51:08.613Z,6.50
2022-08-04T07:53:53.237Z,5.50
2022-08-04T07:55:34.119Z,10.48
2022-08-04T07:57:40.348Z,9.35
2022-08-04T07:59:45.899Z,8.05
2022-08-04T08:01:54.159Z,6.88
2022-08-04T08:03:57.602Z,5.40
2022-08-04T08:06:30.616Z,5.03
2022-08-04T08:08:21.614Z,4.45
2022-08-04T08:10:24.406Z,5.95
2022-08-04T08:12:35.579Z,4.82
2022-08-04T08:14:47.953Z,5.20
2022-08-04T08:16:49.744Z,6.75
2022-08-04T08:18:51.425Z,6.18
2022-08-04T08:20:53.685Z,4.22
2022-08-04T08:22:55.983Z,2.80
2022-08-04T08:24:57.700Z,6.18
2022-08-04T08:27:00.542Z,4.20
2022-08-04T08:29:03.612Z,4.55
2022-08-04T08:31:11.648Z,5.30
2022-08-04T08:33:18.455Z,3.88
2022-08-04T08:35:20.989Z,3.13
2022-08-04T08:37:28.309Z,3.17
2022-08-04T08:39:39.568Z,2.78
2022-08-04T08:42:19.942Z,6.00
2022-08-04T08:44:30.027Z,3.08
2022-08-04T08:47:02.617Z,6.82
2022-08-04T08:50:01.786Z,3.85
2022-08-04T08:52:13.601Z,8.05
2022-08-04T08:54:44.795Z,5.35
2022-08-04T08:57:01.295Z,4.10
2022-08-04T08:59:15.460Z,4.55
2022-08-04T09:01:35.910Z,3.72
2022-08-04T09:03:58.669Z,4.47
2022-08-04T09:06:12.235Z,4.38
2022-08-04T09:08:54.809Z,2.63
2022-08-04T09:11:07.248Z,3.80
2022-08-04T09:13:18.235Z,2.90
2022-08-04T09:15:36.655Z,4.35
2022-08-04T09:17:49.122Z,3.38
2022-08-04T09:19:59.308Z,4.55
2022-08-04T09:22:19.981Z,5.72
2022-08-04T09:24:41.781Z,4.53
2022-08-04T09:27:04.021Z,2.60
2022-08-04T09:29:14.793Z,6.03
2022-08-04T09:31:23.557Z,3.92
2022-08-04T09:33:45.375Z,3.80
2022-08-04T09:36:07.053Z,3.05
2022-08-04T09:38:26.567Z,4.32
2022-08-04T09:40:58.954Z,2.90
2022-08-04T09:43:59.269Z,3.13
2022-08-04T09:46:09.173Z,3.85
2022-08-04T09:48:24.822Z,6.40
2022-08-04T09:50:49.956Z,4.45
2022-08-04T09:53:16.782Z,3.92
2022-08-04T09:55:54.470Z,3.03
2022-08-04T09:58:12.315Z,3.90
2022-08-04T10:00:16.875Z,3.80
2022-08-04T10:02:25.458Z,4.40
2022-08-04T10:04:31.555Z,7.18
2022-08-04T10:06:39.961Z,7.75
2022-08-04T10:09:01.883Z,4.97
2022-08-04T10:11:08.276Z,5.90
2022-08-04T10:13:19.177Z,2.65
2022-08-04T10:15:35.850Z,8.40
2022-08-04T10:18:10.920Z,4.28
2022-08-04T10:20:35.917Z,5.43
2022-08-04T10:23:16.050Z,5.28
2022-08-04T10:26:07.562Z,4.57
2022-08-04T10:28:06.891Z,5.47
2022-08-04T10:30:13.619Z,4.28
2022-08-04T10:32:29.480Z,3.05
2022-08-04T10:34:38.800Z,4.28
2022-08-04T10:36:48.792Z,3.33
2022-08-04T10:38:57.766Z,3.20
2022-08-04T10:41:22.724Z,7.97
2022-08-04T10:43:36.252Z,3.22
2022-08-04T10:45:45.380Z,3.80
2022-08-04T10:48:10.741Z,3.20
2022-08-04T10:50:13.228Z,3.50
2022-08-04T10:52:23.893Z,6.53
2022-08-04T10:54:31.283Z,4.03
2022-08-04T10:56:32.931Z,6.47
2022-08-04T10:58:47.967Z,4.20
2022-08-04T11:00:57.015Z,3.08
2022-08-04T11:03:09.168Z,5.85
2022-08-04T11:05:16.423Z,6.45
2022-08-04T11:07:18.494Z,4.72
2022-08-04T11:09:20.862Z,6.57
2022-08-04T11:12:00.541Z,5.97
2022-08-04T11:13:57.910Z,4.97
2022-08-04T11:16:04.265Z,5.32
2022-08-04T11:18:17.035Z,2.97
2022-08-04T11:20:36.361Z,6.97
2022-08-04T11:22:43.196Z,4.45
2022-08-04T11:24:50.840Z,4.70
2022-08-04T11:27:16.178Z,6.00
2022-08-04T11:29:26.731Z,2.88
2022-08-04T11:31:33.138Z,12.30
2022-08-04T11:33:45.981Z,3.20
2022-08-04T11:35:55.870Z,2.83
2022-08-04T11:38:08.550Z,5.88
2022-08-04T11:40:22.137Z,3.90
2022-08-04T11:42:27.527Z,5.00
2022-08-04T11:44:37.915Z,3.75
2022-08-04T11:46:45.110Z,3.30
2022-08-04T11:49:01.470Z,5.72
2022-08-04T11:51:06.689Z,5.05
2022-08-04T11:53:09.768Z,3.17
2022-08-04T11:55:14.445Z,3.13
2022-08-04T11:57:16.155Z,2.80
2022-08-04T11:59:18.043Z,2.72
2022-08-04T12:01:28.768Z,6.18
2022-08-04T12:04:03.987Z,7.90
2022-08-04T12:06:22.593Z,22.23
2022-08-04T12:08:36.817Z,3.55
2022-08-04T12:10:47.588Z,5.72
2022-08-04T12:13:22.265Z,7.10
2022-08-04T12:15:28.039Z,3.72
2022-08-04T12:17:52.778Z,3.67
2022-08-04T12:20:05.286Z,6.63
2022-08-04T12:22:28.301Z,3.65
2022-08-04T12:24:41.896Z,5.38
2022-08-04T12:26:50.940Z,2.90
2022-08-04T12:29:14.320Z,3.28
2022-08-04T12:31:27.524Z,4.38
2022-08-04T12:33:41.613Z,6.43
2022-08-04T12:36:21.764Z,6.18
2022-08-04T12:38:26.518Z,3.63
2022-08-04T12:40:32.491Z,3.13
2022-08-04T12:42:41.082Z,2.95
2022-08-04T12:44:58.490Z,4.93
2022-08-04T12:47:26.495Z,6.00
2022-08-04T12:49:23.549Z,2.97
2022-08-04T12:52:06.312Z,5.30
2022-08-04T12:53:51.052Z,6.85
2022-08-04T12:56:01.495Z,4.32
2022-08-04T12:58:12.668Z,2.78
2022-08-04T13:00:31.280Z,3.88
2022-08-04T13:02:44.155Z,5.93
2022-08-04T13:04:51.413Z,4.22
2022-08-04T13:07:16.867Z,3.75
2022-08-04T13:09:21.158Z,3.90
2022-08-04T13:11:23.487Z,7.05
2022-08-04T13:13:28.357Z,7.15
2022-08-04T13:15:31.126Z,3.63
2022-08-04T13:17:51.053Z,9.13
2022-08-04T13:19:55.016Z,6.72
2022-08-04T13:22:03.136Z,5.57
2022-08-04T13:24:19.738Z,4.47
2022-08-04T13:26:44.160Z,4.30
2022-08-04T13:28:49.411Z,6.50
2022-08-04T13:30:57.735Z,5.63
2022-08-04T13:33:01.830Z,2.60
2022-08-04T13:35:05.881Z,5.38
2022-08-04T13:37:07.978Z,4.15
2022-08-04T13:39:20.909Z,2.83
2022-08-04T13:41:22.737Z,7.45
2022-08-04T13:44:16.458Z,7.40
2022-08-04T13:46:04.545Z,2.63
2022-08-04T13:48:20.192Z,4.15
2022-08-04T13:50:30.289Z,6.47
2022-08-04T13:52:33.697Z,7.13
2022-08-04T13:54:42.760Z,4.45
2022-08-04T13:56:50.618Z,4.45
2022-08-04T13:58:56.034Z,3.40
2022-08-04T14:01:00.761Z,5.80
2022-08-04T14:03:19.137Z,7.60
2022-08-04T14:05:33.806Z,2.33
2022-08-04T14:07:42.683Z,3.75
2022-08-04T14:10:02.956Z,3.75
2022-08-04T14:12:38.645Z,5.40
2022-08-04T14:14:35.174Z,3.45
2022-08-04T14:16:36.741Z,3.47
2022-08-04T14:18:38.284Z,4.70
2022-08-04T14:20:57.878Z,4.50
2022-08-04T14:25:15.204Z,4.00
2022-08-04T14:27:17.919Z,5.35
2022-08-04T14:29:28.740Z,4.78
2022-08-04T14:31:31.291Z,4.07
2022-08-04T14:34:01.837Z,4.45
2022-08-04T14:36:04.389Z,5.30
2022-08-04T14:38:08.694Z,4.57
2022-08-04T14:40:30.483Z,2.97
2022-08-04T14:42:43.750Z,2.92
2022-08-04T14:44:56.369Z,5.93
2022-08-04T14:46:59.257Z,5.03
2022-08-04T14:49:09.977Z,3.05
2022-08-04T14:51:15.076Z,5.53
2022-08-04T14:53:19.468Z,2.58
2022-08-04T14:55:23.494Z,4.30
2022-08-04T14:57:25.325Z,5.43
2022-08-04T14:59:27.142Z,6.78
2022-08-04T15:01:29.408Z,14.40
2022-08-04T15:03:32.613Z,7.85
2022-08-04T15:06:00.814Z,2.72
2022-08-04T15:07:58.189Z,5.95
2022-08-04T15:09:59.824Z,4.03
2022-08-04T15:12:04.488Z,3.28
2022-08-04T15:14:06.671Z,4.78
2022-08-04T15:16:11.367Z,5.65
2022-08-04T15:18:13.160Z,3.00
2022-08-04T15:20:15.194Z,3.50
2022-08-04T15:22:17.668Z,3.00
2022-08-04T15:24:19.435Z,3.38
2022-08-04T15:26:38.300Z,5.88
2022-08-04T15:28:41.916Z,4.43
2022-08-04T15:30:46.041Z,3.75
2022-08-04T15:32:51.857Z,6.32
2022-08-04T15:34:54.962Z,10.30
2022-08-04T15:36:57.987Z,4.68
2022-08-04T15:39:05.037Z,3.80
2022-08-04T15:41:16.388Z,8.52
2022-08-04T15:43:45.087Z,4.22
2022-08-04T15:46:02.936Z,7.18
2022-08-04T15:48:16.904Z,6.20
2022-08-04T15:50:28.159Z,9.55
2022-08-04T15:52:31.960Z,2.30
2022-08-04T15:54:36.706Z,7.07
2022-08-04T15:56:48.530Z,4.72
2022-08-04T15:59:04.457Z,4.40
2022-08-04T16:01:05.992Z,2.85
2022-08-04T16:03:53.202Z,3.90
2022-08-04T16:05:57.767Z,4.80
2022-08-04T16:08:10.973Z,4.35
2022-08-04T16:10:30.542Z,3.90
2022-08-04T16:12:55.313Z,10.45
2022-08-04T16:15:35.447Z,4.05
2022-08-04T16:17:40.353Z,5.00
2022-08-04T16:19:47.528Z,4.47
2022-08-04T16:21:51.160Z,6.03
2022-08-04T16:23:56.954Z,7.70
2022-08-04T16:26:01.126Z,5.07
2022-08-04T16:28:02.674Z,5.50
2022-08-04T16:30:13.905Z,6.85
2022-08-04T16:32:24.368Z,3.67
2022-08-04T16:34:47.197Z,2.67
2022-08-04T16:36:55.938Z,4.07
2022-08-04T16:39:02.691Z,3.70
2022-08-04T16:41:04.513Z,5.75
2022-08-04T16:43:17.227Z,3.92
2022-08-04T16:45:18.836Z,6.55
2022-08-04T16:47:49.024Z,8.80
2022-08-04T16:50:01.617Z,7.25
2022-08-04T16:52:11.912Z,3.63
2022-08-04T16:54:15.474Z,3.83
2022-08-04T16:56:20.648Z,7.70
2022-08-04T16:58:28.289Z,2.40
2022-08-04T17:00:38.018Z,7.43
2022-08-04T17:02:39.994Z,6.93
2022-08-04T17:04:41.646Z,2.60
2022-08-04T17:06:46.264Z,3.67
2022-08-04T17:08:49.421Z,7.47
2022-08-04T17:10:51.123Z,6.75
2022-08-04T17:13:03.648Z,9.32
2022-08-04T17:15:24.453Z,5.00
2022-08-04T17:18:05.661Z,8.93
2022-08-04T17:19:52.805Z,4.25
2022-08-04T17:22:02.989Z,4.93
2022-08-04T17:24:16.545Z,6.63
2022-08-04T17:26:24.011Z,4.50
2022-08-04T17:28:47.616Z,7.28
2022-08-04T17:30:51.549Z,17.05
2022-08-04T17:32:53.405Z,32.17
2022-08-04T17:34:57.382Z,23.73
2022-08-04T17:37:24.336Z,15.43
2022-08-04T17:39:25.370Z,15.07
2022-08-04T17:41:30.471Z,15.13
2022-08-04T17:44:02.867Z,10.15
2022-08-04T17:46:30.147Z,8.35
2022-08-04T17:48:31.974Z,7.28
2022-08-04T17:50:36.373Z,8.35
2022-08-04T17:52:45.081Z,6.15
2022-08-04T17:54:47.218Z,6.30
2022-08-04T17:56:52.456Z,7.03
2022-08-04T17:59:12.401Z,6.25
2022-08-04T18:01:24.500Z,10.43
2022-08-04T18:03:30.039Z,5.45
2022-08-04T18:06:01.773Z,6.30
2022-08-04T18:08:40.587Z,12.65
2022-08-04T18:10:30.255Z,7.00
2022-08-04T18:12:38.219Z,8.65
2022-08-04T18:14:49.150Z,7.43
2022-08-04T18:16:50.945Z,5.72
2022-08-04T18:19:11.715Z,6.30
2022-08-04T18:21:13.401Z,7.00
2022-08-04T18:23:16.746Z,8.02
2022-08-04T18:25:23.082Z,6.63
2022-08-04T18:27:47.601Z,6.28
2022-08-04T18:30:31.163Z,7.70
2022-08-04T18:32:12.129Z,8.18
2022-08-04T18:34:19.102Z,8.63
2022-08-04T18:36:33.320Z,8.43
2022-08-04T18:38:38.702Z,10.05
2022-08-04T18:40:57.544Z,11.75
2022-08-04T18:43:00.478Z,17.40
2022-08-04T18:45:03.369Z,19.65
2022-08-04T18:47:22.552Z,17.10
2022-08-04T18:50:31.986Z,15.57
2022-08-04T18:51:48.891Z,9.88
2022-08-04T18:53:58.670Z,26.20
2022-08-04T18:56:00.947Z,13.38
2022-08-04T18:58:06.488Z,11.52
2022-08-04T19:00:10.454Z,13.88
2022-08-04T19:02:16.861Z,10.88
2022-08-04T19:04:33.975Z,16.13
2022-08-04T19:06:41.376Z,39.10
2022-08-04T19:11:28.737Z,32.70
2022-08-04T19:13:27.887Z,73.88
2022-08-04T19:15:34.775Z,64.63
2022-08-04T19:17:53.654Z,19.67
2022-08-04T19:19:58.118Z,23.38
2022-08-04T19:22:02.892Z,33.63
2022-08-04T19:24:31.054Z,37.75
2022-08-04T19:26:31.382Z,18.42
2022-08-04T19:28:36.439Z,14.23
2022-08-04T19:30:39.358Z,18.38
2022-08-04T19:32:48.178Z,13.93
2022-08-04T19:34:49.897Z,16.23
2022-08-04T19:36:51.493Z,20.23
2022-08-04T19:38:53.586Z,21.38
2022-08-04T19:40:55.845Z,15.32
2022-08-04T19:43:07.423Z,23.10
2022-08-04T19:45:16.113Z,16.88
2022-08-04T19:50:05.256Z,41.72
2022-08-04T19:52:01.094Z,16.30
2022-08-04T19:54:16.630Z,21.48
2022-08-04T19:56:25.701Z,16.77
2022-08-04T19:58:27.465Z,12.43
2022-08-04T20:00:33.946Z,11.20
2022-08-04T20:02:36.151Z,7.68
2022-08-04T20:04:37.744Z,13.55
2022-08-04T20:06:39.719Z,22.05
2022-08-04T20:08:48.385Z,46.33
2022-08-04T20:10:51.620Z,29.25
2022-08-04T20:12:55.798Z,18.25
2022-08-04T20:14:57.605Z,13.95
2022-08-04T20:17:02.521Z,9.70
2022-08-04T20:19:06.225Z,17.40
2022-08-04T20:21:22.714Z,8.70
2022-08-04T20:23:28.634Z,9.93
2022-08-04T20:25:47.587Z,12.38
2022-08-04T20:27:59.966Z,11.93
2022-08-04T20:30:13.988Z,13.43
2022-08-04T20:32:22.550Z,13.30
2022-08-04T20:34:24.306Z,15.85
2022-08-04T20:36:26.586Z,14.60
2022-08-04T20:38:33.669Z,15.05
2022-08-04T20:40:36.717Z,12.05
2022-08-04T20:42:38.397Z,13.73
2022-08-04T20:44:42.117Z,16.88
2022-08-04T20:46:48.022Z,18.77
2022-08-04T20:48:49.568Z,14.07
2022-08-04T20:50:51.115Z,10.38
2022-08-04T20:52:52.683Z,15.60
2022-08-04T20:54:56.277Z,18.50
2022-08-04T20:56:59.720Z,18.38
2022-08-04T20:59:01.410Z,21.35
2022-08-04T21:01:09.695Z,23.83
2022-08-04T21:03:12.597Z,28.25
2022-08-04T21:05:14.241Z,19.27
2022-08-04T21:07:16.958Z,19.70
2022-08-04T21:09:37.351Z,23.42
2022-08-04T21:11:44.718Z,21.00
2022-08-04T21:13:52.768Z,18.05
2022-08-04T21:15:58.975Z,14.27
2022-08-04T21:18:04.436Z,19.50
2022-08-04T21:20:06.982Z,14.65
2022-08-04T21:22:14.834Z,17.08
2022-08-04T21:24:31.507Z,16.05
2022-08-04T21:26:33.586Z,17.10
2022-08-04T21:28:35.235Z,13.95
2022-08-04T21:30:52.378Z,16.15
2022-08-04T21:32:56.338Z,19.35
2022-08-04T21:34:59.806Z,16.65
2022-08-04T21:37:02.410Z,14.90
2022-08-04T21:39:04.868Z,13.35
2022-08-04T21:41:13.751Z,11.73
2022-08-04T21:43:28.449Z,13.32
2022-08-04T21:45:36.489Z,13.02
2022-08-04T21:47:46.649Z,13.87
2022-08-04T21:49:56.246Z,20.40
2022-08-04T21:52:01.650Z,17.02
2022-08-04T21:54:11.576Z,20.70
2022-08-04T21:56:18.730Z,16.17
2022-08-04T21:58:29.153Z,18.60
2022-08-04T22:00:34.562Z,18.20
2022-08-04T22:02:36.093Z,17.80
2022-08-04T22:04:37.726Z,18.67
2022-08-04T22:06:39.279Z,17.05
2022-08-04T22:08:43.479Z,17.88
2022-08-04T22:10:51.083Z,15.45
2022-08-04T22:12:52.777Z,16.70
2022-08-04T22:14:57.692Z,14.88
2022-08-04T22:17:02.605Z,15.43
2022-08-04T22:19:05.456Z,16.17
2022-08-04T22:21:12.127Z,17.13
2022-08-04T22:23:16.824Z,13.50
2022-08-04T22:25:20.720Z,12.00
2022-08-04T22:27:40.632Z,12.65
2022-08-04T22:29:44.844Z,13.95
2022-08-04T22:31:53.214Z,13.95
2022-08-04T22:33:58.149Z,14.20
2022-08-04T22:36:01.409Z,19.15
2022-08-04T22:38:06.715Z,12.23
2022-08-04T22:40:11.640Z,13.10
2022-08-04T22:42:14.809Z,17.48
2022-08-04T22:44:16.390Z,12.55
2022-08-04T22:46:25.931Z,14.80
2022-08-04T22:48:27.481Z,13.10
2022-08-04T22:50:29.197Z,13.13
2022-08-04T22:52:32.186Z,12.85
2022-08-04T22:54:33.903Z,13.38
2022-08-04T22:56:37.513Z,15.00
2022-08-04T22:58:45.339Z,17.45
2022-08-04T23:00:54.015Z,14.43
2022-08-04T23:02:59.682Z,11.98
2022-08-04T23:05:01.254Z,12.38
2022-08-04T23:07:09.000Z,16.50
2022-08-04T23:09:16.038Z,13.13
2022-08-04T23:11:17.901Z,14.38
2022-08-04T23:13:19.896Z,15.38
2022-08-04T23:15:21.453Z,15.73
2022-08-04T23:17:23.911Z,14.32
2022-08-04T23:19:29.959Z,14.65
2022-08-04T23:21:40.941Z,15.90
2022-08-04T23:24:00.941Z,15.80
2022-08-04T23:26:11.354Z,15.27
2022-08-04T23:28:12.915Z,16.08
2022-08-04T23:30:15.098Z,15.45
2022-08-04T23:32:20.450Z,13.52
2022-08-04T23:34:22.137Z,14.27
2022-08-04T23:36:29.833Z,14.35
2022-08-04T23:38:33.023Z,14.13
2022-08-04T23:40:50.624Z,13.82
2022-08-04T23:42:52.515Z,13.20
2022-08-04T23:44:54.821Z,14.32
2022-08-04T23:47:04.576Z,17.38
2022-08-04T23:49:08.894Z,16.17
2022-08-04T23:51:14.381Z,23.92
2022-08-04T23:53:18.658Z,15.30
2022-08-04T23:55:24.639Z,16.80
2022-08-04T23:58:06.015Z,14.80
2022-08-04T23:59:55.206Z,11.80
